KUVA/UVA METAR and TAF weather

Enter ICAO airport designator
Station Type Date Time Source
KUVA METAR 2021/01/22 07:35 UTC NOAA

KUVA 220735Z AUTO 30005KT 10SM CLR 11/11 A2999 RMK AO2 T01110111


Station Type Date Time Source
KUVA Decoded METAR 2021/01/22 07:35 UTC NOAA

Uvalde, Garner Field Airport, TX, United States (KUVA) 29-12-40N 099-44-36W
Jan 22, 2021 - 02:35 AM EST / 2021.01.22 0735 UTC
Wind: from the WNW (300 degrees) at 6 MPH (5 KT):0
Visibility: 10 mile(s):0
Sky conditions: clear
Temperature: 52.0 F (11.1 C)
Dew Point: 52.0 F (11.1 C)
Relative Humidity: 100%
Pressure (altimeter): 29.99 in. Hg (1015 hPa)
ob: KUVA 220735Z AUTO 30005KT 10SM CLR 11/11 A2999 RMK AO2 T01110111
cycle: 7

Station Type Date Time Source
KUVA TAF UTC NOAA

Error!

Example: see airport list